CheckWX is a tool to help pilots better visualize weather data.  It is not intended as a substitute for an official pre-flight weather briefing.

05:22:53 UTC

KSLB METAR
Storm Lake Municipal Airport
Storm Lake, Iowa, USA
Current

28 mins ago

KSLB 200455Z AUTO 10016KT 1SM -SN BKN003 M09/M09 A3005 RMK AO2
Observed
Feb-20 @ 04:55 UTC
Wind
  • 100° at 16 KTS
Visibility
1,609 meters
Flight Rules
LIFR
Conditions
Light Snow
Cloud Levels
  • Broken at 300' AGL
Temperature
-9°C / 16°F
Dewpoint
-9°C / 16°F
Humidity
100%
Altimeter
30.05" Hg
Pressure
1017.62 hPa
Previous

48 mins ago

KSLB 200435Z AUTO 10016G22KT 3/4SM -SN BKN003 M09/M09 A3007 RMK AO2
Observed
Feb-20 @ 04:35 UTC
Wind
  • 100° at 16 KTS
  • Gusting to 22 KTS
Visibility
1,207 meters
Flight Rules
LIFR
Conditions
Light Snow
Cloud Levels
  • Broken at 300' AGL
Temperature
-9°C / 16°F
Dewpoint
-9°C / 16°F
Humidity
100%
Altimeter
30.07" Hg
Pressure
1018.32 hPa
Previous

1 hour ago

KSLB 200415Z AUTO 09019KT 1 1/4SM -SN CLR M09/M09 A3007 RMK AO2
Observed
Feb-20 @ 04:15 UTC
Wind
  • 090° at 19 KTS
Visibility
2,012 meters
Flight Rules
IFR
Conditions
Light Snow
Cloud Levels
  • Clear skies
Temperature
-9°C / 16°F
Dewpoint
-9°C / 16°F
Humidity
100%
Altimeter
30.07" Hg
Pressure
1018.32 hPa